DAL355 KGSP-KMSP
Flight info
| Callsign | DAL355 |
|---|---|
| Flight time | N/A |
| Altitude | 38000 |
| Route | LOZ TTH ALO KASPR8 |
| Aircraft | L101/H-SDFGHIRWXY/S |
Departure
| Time | 2026-04-30 06:00 |
|---|---|
| Airport | Greenville-Spartanburg International Airport (KGSP) |
Arrival
| Time | N/A |
|---|---|
| Airport | Minneapolis–Saint Paul International Airport / Wold–Chamberlain Field (KMSP) |
| Time | Latitude | Longitude | Altitude | Speed | Heading |
|---|---|---|---|---|---|
| 2026-04-30 05:28 | 34.88941 | -82.21916 | 965 ft | 0 kts | 89° |
| 2026-04-30 05:45 | 34.88941 | -82.21934 | 962 ft | 4 kts | 89° |
| 2026-04-30 05:45 | 34.88940 | -82.21967 | 965 ft | 4 kts | 90° |
| 2026-04-30 05:46 | 34.88940 | -82.21993 | 962 ft | 4 kts | 69° |
| 2026-04-30 05:46 | 34.88924 | -82.22015 | 960 ft | 4 kts | 28° |
| 2026-04-30 05:46 | 34.88909 | -82.22025 | 960 ft | 3 kts | 31° |
| 2026-04-30 05:46 | 34.88906 | -82.22027 | 960 ft | 0 kts | 32° |
| 2026-04-30 05:55 | 34.88907 | -82.22026 | 965 ft | 1 kts | 32° |
| 2026-04-30 05:55 | 34.88925 | -82.22012 | 962 ft | 5 kts | 32° |
| 2026-04-30 05:55 | 34.88965 | -82.21998 | 963 ft | 7 kts | 358° |
| 2026-04-30 05:56 | 34.89006 | -82.22038 | 961 ft | 8 kts | 284° |
| 2026-04-30 05:56 | 34.88976 | -82.22100 | 960 ft | 10 kts | 216° |
| 2026-04-30 05:56 | 34.88908 | -82.22154 | 960 ft | 13 kts | 213° |
| 2026-04-30 05:56 | 34.88825 | -82.22219 | 961 ft | 16 kts | 211° |
| 2026-04-30 05:57 | 34.88724 | -82.22290 | 966 ft | 18 kts | 212° |
| 2026-04-30 05:57 | 34.88617 | -82.22378 | 965 ft | 20 kts | 212° |
| 2026-04-30 05:57 | 34.88506 | -82.22462 | 960 ft | 16 kts | 212° |
| 2026-04-30 05:57 | 34.88403 | -82.22540 | 963 ft | 19 kts | 212° |
| 2026-04-30 05:58 | 34.88286 | -82.22629 | 962 ft | 20 kts | 212° |
| 2026-04-30 05:58 | 34.88232 | -82.22701 | 961 ft | 10 kts | 263° |
| 2026-04-30 05:58 | 34.88262 | -82.22786 | 963 ft | 12 kts | 301° |
| 2026-04-30 05:58 | 34.88325 | -82.22830 | 964 ft | 11 kts | 14° |
| 2026-04-30 05:59 | 34.88364 | -82.22804 | 966 ft | 0 kts | 31° |
| 2026-04-30 05:59 | 34.88402 | -82.22776 | 963 ft | 22 kts | 31° |
| 2026-04-30 05:59 | 34.88735 | -82.22520 | 963 ft | 99 kts | 32° |
| 2026-04-30 05:59 | 34.89564 | -82.21892 | 992 ft | 177 kts | 32° |
| 2026-04-30 06:00 | 34.90635 | -82.21052 | 1903 ft | 189 kts | 32° |
| 2026-04-30 06:00 | 34.91708 | -82.20137 | 3244 ft | 188 kts | 33° |
| 2026-04-30 06:00 | 34.92779 | -82.19227 | 4351 ft | 191 kts | 32° |
| 2026-04-30 06:00 | 34.93995 | -82.18260 | 4583 ft | 224 kts | 31° |
| 2026-04-30 06:01 | 34.95370 | -82.17197 | 4668 ft | 243 kts | 31° |
| 2026-04-30 06:01 | 34.96854 | -82.16066 | 4697 ft | 262 kts | 31° |
| 2026-04-30 06:01 | 34.98476 | -82.14839 | 4717 ft | 282 kts | 31° |
| 2026-04-30 06:01 | 35.00125 | -82.13589 | 4858 ft | 278 kts | 30° |
| 2026-04-30 06:02 | 35.01734 | -82.12338 | 4943 ft | 278 kts | 30° |
| 2026-04-30 06:02 | 35.03479 | -82.11398 | 4909 ft | 273 kts | 6° |
| 2026-04-30 06:02 | 35.05309 | -82.11530 | 5037 ft | 259 kts | 340° |
| 2026-04-30 06:02 | 35.06953 | -82.12478 | 5535 ft | 268 kts | 327° |
| 2026-04-30 06:03 | 35.08548 | -82.13715 | 6232 ft | 271 kts | 323° |
| 2026-04-30 06:03 | 35.10055 | -82.15013 | 7243 ft | 265 kts | 320° |
| 2026-04-30 06:03 | 35.11550 | -82.16401 | 7813 ft | 276 kts | 318° |
| 2026-04-30 06:03 | 35.13084 | -82.17886 | 8407 ft | 285 kts | 317° |
| 2026-04-30 06:04 | 35.14640 | -82.19420 | 9178 ft | 288 kts | 317° |
| 2026-04-30 06:04 | 35.16192 | -82.20955 | 10051 ft | 287 kts | 317° |
| 2026-04-30 06:04 | 35.17736 | -82.22485 | 10687 ft | 296 kts | 316° |
| 2026-04-30 06:05 | 35.21079 | -82.25845 | 11444 ft | 326 kts | 316° |
| 2026-04-30 06:05 | 35.22876 | -82.27644 | 11809 ft | 341 kts | 317° |
| 2026-04-30 06:05 | 35.24743 | -82.29513 | 12188 ft | 353 kts | 317° |
| 2026-04-30 06:05 | 35.26672 | -82.31441 | 12746 ft | 361 kts | 316° |
| 2026-04-30 06:06 | 35.28617 | -82.33377 | 13605 ft | 359 kts | 316° |
| 2026-04-30 06:06 | 35.30515 | -82.35258 | 14554 ft | 353 kts | 316° |
| 2026-04-30 06:06 | 35.32416 | -82.37138 | 15436 ft | 352 kts | 316° |
| 2026-04-30 06:06 | 35.34342 | -82.39052 | 16010 ft | 361 kts | 316° |
| 2026-04-30 06:07 | 35.36312 | -82.41019 | 16565 ft | 371 kts | 316° |
| 2026-04-30 06:07 | 35.38333 | -82.43046 | 17092 ft | 379 kts | 316° |
| 2026-04-30 06:07 | 35.40382 | -82.45101 | 17835 ft | 382 kts | 316° |
| 2026-04-30 06:07 | 35.42435 | -82.47154 | 18684 ft | 379 kts | 316° |
| 2026-04-30 06:08 | 35.44483 | -82.49194 | 18909 ft | 380 kts | 316° |
| 2026-04-30 06:08 | 35.46526 | -82.51229 | 18970 ft | 378 kts | 315° |
| 2026-04-30 06:08 | 35.48559 | -82.53255 | 18969 ft | 375 kts | 315° |
| 2026-04-30 06:08 | 35.50552 | -82.55242 | 19132 ft | 377 kts | 315° |
| 2026-04-30 06:09 | 35.52614 | -82.57308 | 19671 ft | 384 kts | 315° |
| 2026-04-30 06:09 | 35.54671 | -82.59363 | 20687 ft | 377 kts | 315° |
| 2026-04-30 06:09 | 35.56666 | -82.61343 | 22101 ft | 360 kts | 314° |
| 2026-04-30 06:09 | 35.58594 | -82.63247 | 23389 ft | 353 kts | 314° |
| 2026-04-30 06:10 | 35.60511 | -82.65153 | 24010 ft | 358 kts | 313° |
| 2026-04-30 06:10 | 35.62474 | -82.67121 | 24274 ft | 372 kts | 313° |
| 2026-04-30 06:10 | 35.64504 | -82.69174 | 24539 ft | 384 kts | 313° |
| 2026-04-30 06:10 | 35.66592 | -82.71297 | 24924 ft | 393 kts | 313° |
| 2026-04-30 06:11 | 35.68679 | -82.73412 | 25585 ft | 394 kts | 313° |
| 2026-04-30 06:11 | 35.70784 | -82.75528 | 26506 ft | 388 kts | 312° |
| 2026-04-30 06:11 | 35.72868 | -82.77608 | 27385 ft | 386 kts | 311° |
| 2026-04-30 06:11 | 35.74967 | -82.79722 | 27780 ft | 394 kts | 310° |
| 2026-04-30 06:12 | 35.77109 | -82.81904 | 28020 ft | 405 kts | 310° |
| 2026-04-30 06:12 | 35.79304 | -82.84150 | 28262 ft | 415 kts | 310° |
| 2026-04-30 06:12 | 35.81539 | -82.86433 | 28768 ft | 419 kts | 310° |
| 2026-04-30 06:12 | 35.83786 | -82.88712 | 29547 ft | 417 kts | 310° |
| 2026-04-30 06:13 | 35.86022 | -82.90961 | 30442 ft | 412 kts | 310° |
| 2026-04-30 06:13 | 35.88209 | -82.93152 | 31084 ft | 411 kts | 310° |
| 2026-04-30 06:13 | 35.90432 | -82.95388 | 31531 ft | 414 kts | 310° |
| 2026-04-30 06:13 | 35.92669 | -82.97649 | 31971 ft | 418 kts | 310° |
| 2026-04-30 06:14 | 35.94921 | -82.99929 | 32484 ft | 419 kts | 310° |
| 2026-04-30 06:14 | 35.97163 | -83.02195 | 33211 ft | 414 kts | 310° |
| 2026-04-30 06:14 | 35.99372 | -83.04413 | 34198 ft | 403 kts | 310° |
| 2026-04-30 06:14 | 36.01507 | -83.06536 | 35393 ft | 384 kts | 310° |
| 2026-04-30 06:15 | 36.03527 | -83.08513 | 36954 ft | 357 kts | 310° |
| 2026-04-30 06:15 | 36.05448 | -83.10382 | 37964 ft | 353 kts | 309° |
| 2026-04-30 06:15 | 36.07397 | -83.12332 | 38070 ft | 367 kts | 309° |
| 2026-04-30 06:16 | 36.11386 | -83.16429 | 38015 ft | 379 kts | 309° |
| 2026-04-30 06:16 | 36.15446 | -83.20572 | 37995 ft | 378 kts | 309° |
| 2026-04-30 06:17 | 36.19509 | -83.24711 | 37993 ft | 378 kts | 309° |
| 2026-04-30 06:17 | 36.23572 | -83.28852 | 37999 ft | 378 kts | 309° |
| 2026-04-30 06:18 | 36.27605 | -83.32970 | 37993 ft | 378 kts | 309° |
| 2026-04-30 06:18 | 36.31662 | -83.37120 | 37992 ft | 378 kts | 309° |
| 2026-04-30 06:19 | 36.35722 | -83.41274 | 37987 ft | 378 kts | 309° |
| 2026-04-30 06:19 | 36.39782 | -83.45433 | 37976 ft | 379 kts | 309° |
| 2026-04-30 06:20 | 36.43842 | -83.49603 | 37975 ft | 379 kts | 309° |
| 2026-04-30 06:20 | 36.47878 | -83.53748 | 37982 ft | 379 kts | 308° |
| 2026-04-30 06:21 | 36.51942 | -83.57925 | 37962 ft | 380 kts | 308° |
| 2026-04-30 06:21 | 36.56015 | -83.62117 | 37981 ft | 380 kts | 308° |
| 2026-04-30 06:22 | 36.60088 | -83.66315 | 37997 ft | 381 kts | 308° |
| 2026-04-30 06:22 | 36.64139 | -83.70496 | 37982 ft | 381 kts | 308° |
| 2026-04-30 06:23 | 36.68220 | -83.74714 | 37974 ft | 381 kts | 308° |
| 2026-04-30 06:23 | 36.72303 | -83.78944 | 37984 ft | 382 kts | 308° |
| 2026-04-30 06:24 | 36.76391 | -83.83182 | 37994 ft | 382 kts | 308° |
| 2026-04-30 06:24 | 36.80450 | -83.87397 | 37993 ft | 382 kts | 308° |
| 2026-04-30 06:25 | 36.84539 | -83.91643 | 38047 ft | 383 kts | 308° |
| 2026-04-30 06:25 | 36.88642 | -83.95901 | 37996 ft | 384 kts | 308° |
| 2026-04-30 06:26 | 36.92754 | -84.00166 | 38021 ft | 384 kts | 308° |
| 2026-04-30 06:26 | 36.96835 | -84.04410 | 38029 ft | 384 kts | 308° |
| 2026-04-30 06:27 | 37.00949 | -84.08688 | 38030 ft | 385 kts | 308° |
| 2026-04-30 06:27 | 37.04867 | -84.13151 | 38037 ft | 378 kts | 304° |
| 2026-04-30 06:28 | 37.08656 | -84.17742 | 38037 ft | 379 kts | 305° |
| 2026-04-30 06:28 | 37.12456 | -84.22288 | 38036 ft | 381 kts | 305° |
| 2026-04-30 06:29 | 37.16278 | -84.26929 | 38025 ft | 383 kts | 305° |
| 2026-04-30 06:29 | 37.20100 | -84.31596 | 38026 ft | 384 kts | 305° |
| 2026-04-30 06:30 | 37.23937 | -84.36285 | 38016 ft | 386 kts | 305° |
| 2026-04-30 06:30 | 37.27777 | -84.40986 | 38023 ft | 386 kts | 305° |
| 2026-04-30 06:31 | 37.31597 | -84.45665 | 38019 ft | 386 kts | 305° |
| 2026-04-30 06:31 | 37.35434 | -84.50378 | 38089 ft | 386 kts | 306° |
| 2026-04-30 06:32 | 37.39297 | -84.55139 | 38034 ft | 392 kts | 306° |
| 2026-04-30 06:32 | 37.43208 | -84.59957 | 38042 ft | 394 kts | 306° |
| 2026-04-30 06:33 | 37.47132 | -84.64790 | 38047 ft | 395 kts | 306° |
| 2026-04-30 06:33 | 37.51026 | -84.69598 | 38051 ft | 395 kts | 306° |
| 2026-04-30 06:34 | 37.54942 | -84.74446 | 38048 ft | 395 kts | 306° |
| 2026-04-30 06:34 | 37.58857 | -84.79300 | 38053 ft | 395 kts | 306° |
| 2026-04-30 06:35 | 37.62775 | -84.84170 | 38066 ft | 397 kts | 306° |
| 2026-04-30 06:35 | 37.66698 | -84.89051 | 38048 ft | 401 kts | 306° |
| 2026-04-30 06:36 | 37.70672 | -84.93997 | 38049 ft | 401 kts | 306° |
| 2026-04-30 06:36 | 37.74645 | -84.98951 | 38042 ft | 401 kts | 306° |
| 2026-04-30 06:37 | 37.78614 | -85.03907 | 38039 ft | 401 kts | 306° |
| 2026-04-30 06:37 | 37.82583 | -85.08869 | 38036 ft | 401 kts | 306° |
| 2026-04-30 06:38 | 37.86522 | -85.13808 | 38059 ft | 402 kts | 306° |
| 2026-04-30 06:38 | 37.90490 | -85.18790 | 38041 ft | 402 kts | 306° |
| 2026-04-30 06:39 | 37.94463 | -85.23787 | 38038 ft | 403 kts | 306° |
| 2026-04-30 06:39 | 37.98434 | -85.28790 | 38045 ft | 402 kts | 306° |
| 2026-04-30 06:40 | 38.02378 | -85.33764 | 38042 ft | 403 kts | 306° |
| 2026-04-30 06:40 | 38.06347 | -85.38777 | 38052 ft | 402 kts | 306° |
| 2026-04-30 06:41 | 38.10311 | -85.43796 | 38102 ft | 403 kts | 306° |
| 2026-04-30 06:41 | 38.14279 | -85.48831 | 38070 ft | 404 kts | 307° |
| 2026-04-30 06:42 | 38.18253 | -85.53876 | 38071 ft | 404 kts | 307° |
| 2026-04-30 06:42 | 38.22200 | -85.58897 | 38073 ft | 404 kts | 307° |
| 2026-04-30 06:43 | 38.26172 | -85.63952 | 38071 ft | 404 kts | 307° |
| 2026-04-30 06:43 | 38.30138 | -85.69010 | 38073 ft | 404 kts | 306° |
| 2026-04-30 06:44 | 38.34103 | -85.74079 | 38052 ft | 404 kts | 306° |
| 2026-04-30 06:44 | 38.38038 | -85.79117 | 38051 ft | 404 kts | 306° |
| 2026-04-30 06:45 | 38.41996 | -85.84191 | 38057 ft | 404 kts | 306° |
| 2026-04-30 06:45 | 38.45955 | -85.89274 | 38053 ft | 404 kts | 306° |
| 2026-04-30 06:46 | 38.49906 | -85.94362 | 38058 ft | 404 kts | 306° |
| 2026-04-30 06:46 | 38.53832 | -85.99423 | 38058 ft | 404 kts | 306° |
| 2026-04-30 06:47 | 38.57781 | -86.04518 | 38054 ft | 404 kts | 306° |
| 2026-04-30 06:47 | 38.61733 | -86.09631 | 38071 ft | 405 kts | 307° |
| 2026-04-30 06:48 | 38.65703 | -86.14774 | 38057 ft | 407 kts | 307° |
| 2026-04-30 06:48 | 38.69681 | -86.19929 | 38062 ft | 407 kts | 307° |
| 2026-04-30 06:49 | 38.73628 | -86.25056 | 38072 ft | 406 kts | 307° |
| 2026-04-30 06:49 | 38.77592 | -86.30218 | 38078 ft | 406 kts | 307° |
| 2026-04-30 06:50 | 38.81557 | -86.35384 | 38081 ft | 406 kts | 307° |
| 2026-04-30 06:50 | 38.85520 | -86.40560 | 38083 ft | 407 kts | 307° |
| 2026-04-30 06:51 | 38.89468 | -86.45727 | 38083 ft | 409 kts | 307° |
| 2026-04-30 06:51 | 38.93450 | -86.50944 | 38082 ft | 409 kts | 307° |
| 2026-04-30 06:52 | 38.97433 | -86.56168 | 38072 ft | 409 kts | 307° |
| 2026-04-30 06:52 | 39.01411 | -86.61396 | 38089 ft | 409 kts | 307° |
| 2026-04-30 06:53 | 39.05356 | -86.66591 | 38089 ft | 409 kts | 307° |
| 2026-04-30 06:53 | 39.09327 | -86.71834 | 38099 ft | 410 kts | 307° |
| 2026-04-30 06:54 | 39.13311 | -86.77101 | 38096 ft | 412 kts | 307° |
| 2026-04-30 06:54 | 39.17309 | -86.82389 | 38085 ft | 412 kts | 307° |
| 2026-04-30 06:55 | 39.21280 | -86.87661 | 38080 ft | 412 kts | 307° |
| 2026-04-30 06:55 | 39.25272 | -86.92970 | 38087 ft | 412 kts | 307° |
| 2026-04-30 06:56 | 39.29270 | -86.98275 | 38075 ft | 412 kts | 307° |
| 2026-04-30 06:56 | 39.33261 | -87.03583 | 38085 ft | 412 kts | 307° |
| 2026-04-30 06:57 | 39.37255 | -87.08927 | 38088 ft | 414 kts | 307° |
| 2026-04-30 06:57 | 39.41239 | -87.14256 | 38087 ft | 415 kts | 307° |
| 2026-04-30 06:58 | 39.45250 | -87.19627 | 38107 ft | 415 kts | 307° |
| 2026-04-30 06:58 | 39.49187 | -87.25078 | 38108 ft | 412 kts | 304° |
| 2026-04-30 06:59 | 39.52785 | -87.30832 | 38105 ft | 411 kts | 302° |
| 2026-04-30 06:59 | 39.56333 | -87.36574 | 38124 ft | 412 kts | 304° |
| 2026-04-30 07:00 | 39.60004 | -87.42292 | 38107 ft | 413 kts | 304° |
| 2026-04-30 07:00 | 39.63701 | -87.48013 | 38112 ft | 414 kts | 304° |
| 2026-04-30 07:01 | 39.67386 | -87.53748 | 38119 ft | 413 kts | 304° |
| 2026-04-30 07:01 | 39.71035 | -87.59459 | 38116 ft | 414 kts | 304° |
| 2026-04-30 07:02 | 39.74716 | -87.65205 | 38120 ft | 414 kts | 304° |
| 2026-04-30 07:02 | 39.78390 | -87.70962 | 38155 ft | 414 kts | 304° |
| 2026-04-30 07:03 | 39.82072 | -87.76731 | 38116 ft | 415 kts | 304° |
| 2026-04-30 07:03 | 39.85741 | -87.82480 | 38112 ft | 416 kts | 304° |
| 2026-04-30 07:04 | 39.89426 | -87.88280 | 38108 ft | 416 kts | 304° |
| 2026-04-30 07:04 | 39.93106 | -87.94093 | 38105 ft | 416 kts | 304° |